sensor_id;sensor_type;location;lat;lon;timestamp;P1;durP1;ratioP1;P2;durP2;ratioP2
13805;SDS011;6974;53.606;9.872;2022-08-14T00:02:14;6.60;;;3.50;;
13805;SDS011;6974;53.606;9.872;2022-08-14T00:04:41;3.97;;;3.13;;
13805;SDS011;6974;53.606;9.872;2022-08-14T00:07:08;3.90;;;3.17;;
13805;SDS011;6974;53.606;9.872;2022-08-14T00:09:36;7.13;;;3.10;;
13805;SDS011;6974;53.606;9.872;2022-08-14T00:12:04;3.67;;;3.37;;
13805;SDS011;6974;53.606;9.872;2022-08-14T00:14:33;4.47;;;3.10;;
13805;SDS011;6974;53.606;9.872;2022-08-14T00:16:59;3.60;;;3.30;;
13805;SDS011;6974;53.606;9.872;2022-08-14T00:19:27;3.87;;;3.23;;
13805;SDS011;6974;53.606;9.872;2022-08-14T00:21:54;5.13;;;3.23;;
13805;SDS011;6974;53.606;9.872;2022-08-14T00:24:21;4.63;;;3.23;;
13805;SDS011;6974;53.606;9.872;2022-08-14T00:26:48;3.17;;;2.97;;
13805;SDS011;6974;53.606;9.872;2022-08-14T00:29:15;4.63;;;3.60;;
13805;SDS011;6974;53.606;9.872;2022-08-14T00:31:44;5.27;;;3.80;;
13805;SDS011;6974;53.606;9.872;2022-08-14T00:34:11;5.63;;;3.37;;
13805;SDS011;6974;53.606;9.872;2022-08-14T00:36:37;4.40;;;3.63;;
13805;SDS011;6974;53.606;9.872;2022-08-14T00:39:04;4.67;;;3.50;;
13805;SDS011;6974;53.606;9.872;2022-08-14T00:41:31;4.20;;;3.47;;
13805;SDS011;6974;53.606;9.872;2022-08-14T00:43:59;4.03;;;3.20;;
13805;SDS011;6974;53.606;9.872;2022-08-14T00:46:26;3.70;;;3.33;;
13805;SDS011;6974;53.606;9.872;2022-08-14T00:48:54;4.07;;;3.43;;
13805;SDS011;6974;53.606;9.872;2022-08-14T00:51:21;4.50;;;3.30;;
13805;SDS011;6974;53.606;9.872;2022-08-14T00:53:48;5.40;;;3.60;;
13805;SDS011;6974;53.606;9.872;2022-08-14T00:56:15;3.67;;;3.37;;
13805;SDS011;6974;53.606;9.872;2022-08-14T00:58:44;3.40;;;3.10;;
13805;SDS011;6974;53.606;9.872;2022-08-14T01:01:11;4.33;;;3.30;;
13805;SDS011;6974;53.606;9.872;2022-08-14T01:03:40;3.53;;;3.23;;
13805;SDS011;6974;53.606;9.872;2022-08-14T01:06:10;3.20;;;3.00;;
13805;SDS011;6974;53.606;9.872;2022-08-14T01:08:39;4.57;;;3.43;;
13805;SDS011;6974;53.606;9.872;2022-08-14T01:11:08;3.57;;;3.27;;
13805;SDS011;6974;53.606;9.872;2022-08-14T01:13:40;3.60;;;3.13;;
13805;SDS011;6974;53.606;9.872;2022-08-14T01:16:09;3.60;;;3.30;;
13805;SDS011;6974;53.606;9.872;2022-08-14T01:18:37;3.60;;;3.30;;
13805;SDS011;6974;53.606;9.872;2022-08-14T01:21:22;3.50;;;3.20;;
13805;SDS011;6974;53.606;9.872;2022-08-14T01:23:50;4.60;;;3.10;;
13805;SDS011;6974;53.606;9.872;2022-08-14T01:26:19;3.70;;;3.27;;
13805;SDS011;6974;53.606;9.872;2022-08-14T01:28:47;3.80;;;3.20;;
13805;SDS011;6974;53.606;9.872;2022-08-14T01:31:20;3.47;;;3.23;;
13805;SDS011;6974;53.606;9.872;2022-08-14T01:33:48;3.50;;;3.20;;
13805;SDS011;6974;53.606;9.872;2022-08-14T01:36:17;3.67;;;3.27;;
13805;SDS011;6974;53.606;9.872;2022-08-14T01:38:46;3.20;;;3.00;;
13805;SDS011;6974;53.606;9.872;2022-08-14T01:41:15;3.43;;;3.23;;
13805;SDS011;6974;53.606;9.872;2022-08-14T01:43:45;5.33;;;3.47;;
13805;SDS011;6974;53.606;9.872;2022-08-14T01:46:14;3.70;;;3.33;;
13805;SDS011;6974;53.606;9.872;2022-08-14T01:48:41;3.20;;;3.00;;
13805;SDS011;6974;53.606;9.872;2022-08-14T01:51:09;4.33;;;3.20;;
13805;SDS011;6974;53.606;9.872;2022-08-14T01:53:38;3.67;;;3.37;;
13805;SDS011;6974;53.606;9.872;2022-08-14T01:56:08;3.67;;;3.37;;
13805;SDS011;6974;53.606;9.872;2022-08-14T01:58:35;3.70;;;3.40;;
13805;SDS011;6974;53.606;9.872;2022-08-14T02:01:02;3.60;;;3.30;;
13805;SDS011;6974;53.606;9.872;2022-08-14T02:03:30;3.80;;;3.50;;
13805;SDS011;6974;53.606;9.872;2022-08-14T02:06:00;3.73;;;3.43;;
13805;SDS011;6974;53.606;9.872;2022-08-14T02:08:27;4.83;;;3.33;;
13805;SDS011;6974;53.606;9.872;2022-08-14T02:10:55;3.70;;;3.00;;
13805;SDS011;6974;53.606;9.872;2022-08-14T02:13:42;5.03;;;3.43;;
13805;SDS011;6974;53.606;9.872;2022-08-14T02:16:11;5.47;;;3.60;;
13805;SDS011;6974;53.606;9.872;2022-08-14T02:18:40;4.13;;;3.50;;
13805;SDS011;6974;53.606;9.872;2022-08-14T02:21:07;3.67;;;3.37;;
13805;SDS011;6974;53.606;9.872;2022-08-14T02:23:36;4.73;;;3.23;;
13805;SDS011;6974;53.606;9.872;2022-08-14T02:26:13;3.80;;;3.50;;
13805;SDS011;6974;53.606;9.872;2022-08-14T02:28:43;3.70;;;3.20;;
13805;SDS011;6974;53.606;9.872;2022-08-14T02:31:11;4.93;;;3.20;;
13805;SDS011;6974;53.606;9.872;2022-08-14T02:33:38;3.60;;;3.27;;
13805;SDS011;6974;53.606;9.872;2022-08-14T02:36:07;3.90;;;3.47;;
13805;SDS011;6974;53.606;9.872;2022-08-14T02:38:35;4.93;;;3.40;;
13805;SDS011;6974;53.606;9.872;2022-08-14T02:41:03;4.50;;;3.40;;
13805;SDS011;6974;53.606;9.872;2022-08-14T02:43:30;4.43;;;3.40;;
13805;SDS011;6974;53.606;9.872;2022-08-14T02:45:58;3.90;;;3.20;;
13805;SDS011;6974;53.606;9.872;2022-08-14T02:48:27;5.87;;;3.67;;
13805;SDS011;6974;53.606;9.872;2022-08-14T02:50:56;4.13;;;3.13;;
13805;SDS011;6974;53.606;9.872;2022-08-14T02:53:23;7.27;;;3.40;;
13805;SDS011;6974;53.606;9.872;2022-08-14T02:55:50;5.50;;;3.57;;
13805;SDS011;6974;53.606;9.872;2022-08-14T02:58:18;3.57;;;3.33;;
13805;SDS011;6974;53.606;9.872;2022-08-14T03:00:48;3.53;;;3.17;;
13805;SDS011;6974;53.606;9.872;2022-08-14T03:03:16;4.77;;;3.63;;
13805;SDS011;6974;53.606;9.872;2022-08-14T03:05:46;3.23;;;3.00;;
13805;SDS011;6974;53.606;9.872;2022-08-14T03:08:15;5.07;;;3.27;;
13805;SDS011;6974;53.606;9.872;2022-08-14T03:10:42;5.40;;;3.50;;
13805;SDS011;6974;53.606;9.872;2022-08-14T03:13:10;3.97;;;3.60;;
13805;SDS011;6974;53.606;9.872;2022-08-14T03:15:37;4.40;;;3.20;;
13805;SDS011;6974;53.606;9.872;2022-08-14T03:18:08;4.40;;;3.40;;
13805;SDS011;6974;53.606;9.872;2022-08-14T03:20:37;5.37;;;3.53;;
13805;SDS011;6974;53.606;9.872;2022-08-14T03:23:05;3.50;;;3.20;;
13805;SDS011;6974;53.606;9.872;2022-08-14T03:25:32;4.33;;;3.20;;
13805;SDS011;6974;53.606;9.872;2022-08-14T03:28:00;4.47;;;3.60;;
13805;SDS011;6974;53.606;9.872;2022-08-14T03:30:28;3.93;;;3.57;;
13805;SDS011;6974;53.606;9.872;2022-08-14T03:32:56;3.63;;;3.33;;
13805;SDS011;6974;53.606;9.872;2022-08-14T03:35:23;4.50;;;3.50;;
13805;SDS011;6974;53.606;9.872;2022-08-14T03:37:51;3.63;;;3.33;;
13805;SDS011;6974;53.606;9.872;2022-08-14T03:40:19;4.13;;;3.30;;
13805;SDS011;6974;53.606;9.872;2022-08-14T03:42:49;4.33;;;3.33;;
13805;SDS011;6974;53.606;9.872;2022-08-14T03:45:16;5.10;;;3.67;;
13805;SDS011;6974;53.606;9.872;2022-08-14T03:47:43;4.47;;;3.37;;
13805;SDS011;6974;53.606;9.872;2022-08-14T03:50:10;4.57;;;3.50;;
13805;SDS011;6974;53.606;9.872;2022-08-14T03:52:38;3.40;;;3.10;;
13805;SDS011;6974;53.606;9.872;2022-08-14T03:55:09;4.00;;;3.60;;
13805;SDS011;6974;53.606;9.872;2022-08-14T03:57:37;3.43;;;3.13;;
13805;SDS011;6974;53.606;9.872;2022-08-14T04:00:06;5.27;;;3.50;;
13805;SDS011;6974;53.606;9.872;2022-08-14T04:02:35;4.40;;;3.30;;
13805;SDS011;6974;53.606;9.872;2022-08-14T04:05:03;4.37;;;3.30;;
13805;SDS011;6974;53.606;9.872;2022-08-14T04:07:30;4.53;;;3.77;;
13805;SDS011;6974;53.606;9.872;2022-08-14T04:09:58;4.70;;;3.50;;
13805;SDS011;6974;53.606;9.872;2022-08-14T04:12:26;2.93;;;2.73;;
13805;SDS011;6974;53.606;9.872;2022-08-14T04:14:53;3.37;;;3.00;;
13805;SDS011;6974;53.606;9.872;2022-08-14T04:17:20;3.30;;;3.10;;
13805;SDS011;6974;53.606;9.872;2022-08-14T04:19:47;4.80;;;3.10;;
13805;SDS011;6974;53.606;9.872;2022-08-14T04:22:14;3.43;;;3.00;;
13805;SDS011;6974;53.606;9.872;2022-08-14T04:24:41;4.90;;;3.53;;
13805;SDS011;6974;53.606;9.872;2022-08-14T04:27:09;3.63;;;3.30;;
13805;SDS011;6974;53.606;9.872;2022-08-14T04:29:39;4.77;;;3.40;;
13805;SDS011;6974;53.606;9.872;2022-08-14T04:32:06;5.90;;;3.47;;
13805;SDS011;6974;53.606;9.872;2022-08-14T04:34:34;4.53;;;3.33;;
13805;SDS011;6974;53.606;9.872;2022-08-14T04:37:04;3.83;;;3.13;;
13805;SDS011;6974;53.606;9.872;2022-08-14T04:39:48;4.10;;;3.70;;
13805;SDS011;6974;53.606;9.872;2022-08-14T04:42:33;4.47;;;3.10;;
13805;SDS011;6974;53.606;9.872;2022-08-14T04:45:20;4.90;;;3.20;;
13805;SDS011;6974;53.606;9.872;2022-08-14T04:47:47;4.87;;;3.23;;
13805;SDS011;6974;53.606;9.872;2022-08-14T04:50:31;3.53;;;2.93;;
13805;SDS011;6974;53.606;9.872;2022-08-14T04:52:59;3.63;;;3.13;;
13805;SDS011;6974;53.606;9.872;2022-08-14T04:55:26;3.73;;;3.33;;
13805;SDS011;6974;53.606;9.872;2022-08-14T04:57:53;4.07;;;3.50;;
13805;SDS011;6974;53.606;9.872;2022-08-14T05:00:22;4.07;;;3.33;;
13805;SDS011;6974;53.606;9.872;2022-08-14T05:02:48;3.13;;;2.93;;
13805;SDS011;6974;53.606;9.872;2022-08-14T05:05:15;4.77;;;3.10;;
13805;SDS011;6974;53.606;9.872;2022-08-14T05:07:44;3.77;;;3.23;;
13805;SDS011;6974;53.606;9.872;2022-08-14T05:10:11;3.43;;;3.07;;
13805;SDS011;6974;53.606;9.872;2022-08-14T05:12:38;4.70;;;3.50;;
13805;SDS011;6974;53.606;9.872;2022-08-14T05:15:05;4.40;;;3.10;;
13805;SDS011;6974;53.606;9.872;2022-08-14T05:17:41;3.90;;;3.40;;
13805;SDS011;6974;53.606;9.872;2022-08-14T05:20:08;4.47;;;3.30;;
13805;SDS011;6974;53.606;9.872;2022-08-14T05:22:36;3.80;;;3.50;;
13805;SDS011;6974;53.606;9.872;2022-08-14T05:25:03;5.13;;;3.20;;
13805;SDS011;6974;53.606;9.872;2022-08-14T05:27:30;5.97;;;3.27;;
13805;SDS011;6974;53.606;9.872;2022-08-14T05:29:57;3.87;;;3.20;;
13805;SDS011;6974;53.606;9.872;2022-08-14T05:32:29;5.83;;;3.17;;
13805;SDS011;6974;53.606;9.872;2022-08-14T05:34:58;4.33;;;2.83;;
13805;SDS011;6974;53.606;9.872;2022-08-14T05:37:25;4.03;;;3.17;;
13805;SDS011;6974;53.606;9.872;2022-08-14T05:39:53;5.40;;;3.13;;
13805;SDS011;6974;53.606;9.872;2022-08-14T05:42:20;4.33;;;2.90;;
13805;SDS011;6974;53.606;9.872;2022-08-14T05:44:47;4.27;;;3.37;;
13805;SDS011;6974;53.606;9.872;2022-08-14T05:47:14;4.50;;;3.07;;
13805;SDS011;6974;53.606;9.872;2022-08-14T05:49:41;3.37;;;3.07;;
13805;SDS011;6974;53.606;9.872;2022-08-14T05:52:11;4.53;;;2.83;;
13805;SDS011;6974;53.606;9.872;2022-08-14T05:54:38;4.47;;;3.20;;
13805;SDS011;6974;53.606;9.872;2022-08-14T05:57:04;3.13;;;2.87;;
13805;SDS011;6974;53.606;9.872;2022-08-14T05:59:31;3.97;;;3.10;;
13805;SDS011;6974;53.606;9.872;2022-08-14T06:01:59;3.20;;;2.90;;
13805;SDS011;6974;53.606;9.872;2022-08-14T06:04:26;4.60;;;2.93;;
13805;SDS011;6974;53.606;9.872;2022-08-14T06:06:54;5.73;;;3.07;;
13805;SDS011;6974;53.606;9.872;2022-08-14T06:09:22;4.30;;;3.10;;
13805;SDS011;6974;53.606;9.872;2022-08-14T06:11:49;6.53;;;3.50;;
13805;SDS011;6974;53.606;9.872;2022-08-14T06:14:16;5.53;;;3.10;;
13805;SDS011;6974;53.606;9.872;2022-08-14T06:16:43;5.43;;;3.10;;
13805;SDS011;6974;53.606;9.872;2022-08-14T06:19:11;3.83;;;2.80;;
13805;SDS011;6974;53.606;9.872;2022-08-14T06:21:38;5.97;;;2.80;;
13805;SDS011;6974;53.606;9.872;2022-08-14T06:24:06;3.37;;;3.00;;
13805;SDS011;6974;53.606;9.872;2022-08-14T06:26:35;3.60;;;3.20;;
13805;SDS011;6974;53.606;9.872;2022-08-14T06:29:02;3.73;;;3.33;;
13805;SDS011;6974;53.606;9.872;2022-08-14T06:31:29;4.33;;;3.40;;
13805;SDS011;6974;53.606;9.872;2022-08-14T06:33:55;5.80;;;2.97;;
13805;SDS011;6974;53.606;9.872;2022-08-14T06:36:23;7.37;;;3.40;;
13805;SDS011;6974;53.606;9.872;2022-08-14T06:38:50;6.50;;;3.20;;
13805;SDS011;6974;53.606;9.872;2022-08-14T06:41:18;4.70;;;2.97;;
13805;SDS011;6974;53.606;9.872;2022-08-14T06:43:46;4.20;;;3.03;;
13805;SDS011;6974;53.606;9.872;2022-08-14T06:46:13;6.40;;;3.20;;
13805;SDS011;6974;53.606;9.872;2022-08-14T06:48:40;4.93;;;3.20;;
13805;SDS011;6974;53.606;9.872;2022-08-14T06:51:07;4.53;;;3.23;;
13805;SDS011;6974;53.606;9.872;2022-08-14T06:53:34;3.93;;;2.97;;
13805;SDS011;6974;53.606;9.872;2022-08-14T06:56:01;4.50;;;3.40;;
13805;SDS011;6974;53.606;9.872;2022-08-14T06:58:28;5.10;;;3.37;;
13805;SDS011;6974;53.606;9.872;2022-08-14T07:00:57;5.23;;;3.30;;
13805;SDS011;6974;53.606;9.872;2022-08-14T07:03:42;7.57;;;3.27;;
13805;SDS011;6974;53.606;9.872;2022-08-14T07:06:26;6.47;;;3.13;;
13805;SDS011;6974;53.606;9.872;2022-08-14T07:08:54;3.93;;;3.23;;
13805;SDS011;6974;53.606;9.872;2022-08-14T07:11:21;4.63;;;3.20;;
13805;SDS011;6974;53.606;9.872;2022-08-14T07:13:48;4.80;;;3.80;;
13805;SDS011;6974;53.606;9.872;2022-08-14T07:16:16;4.53;;;3.63;;
13805;SDS011;6974;53.606;9.872;2022-08-14T07:18:43;4.03;;;3.43;;
13805;SDS011;6974;53.606;9.872;2022-08-14T07:21:10;5.07;;;3.67;;
13805;SDS011;6974;53.606;9.872;2022-08-14T07:23:37;4.50;;;3.80;;
13805;SDS011;6974;53.606;9.872;2022-08-14T07:26:04;3.70;;;3.33;;
13805;SDS011;6974;53.606;9.872;2022-08-14T07:28:32;6.30;;;3.60;;
13805;SDS011;6974;53.606;9.872;2022-08-14T07:31:01;4.70;;;3.33;;
13805;SDS011;6974;53.606;9.872;2022-08-14T07:33:34;4.07;;;3.43;;
13805;SDS011;6974;53.606;9.872;2022-08-14T07:36:05;4.97;;;3.60;;
13805;SDS011;6974;53.606;9.872;2022-08-14T07:38:33;4.20;;;3.40;;
13805;SDS011;6974;53.606;9.872;2022-08-14T07:41:01;4.80;;;3.50;;
13805;SDS011;6974;53.606;9.872;2022-08-14T07:43:29;4.80;;;3.30;;
13805;SDS011;6974;53.606;9.872;2022-08-14T07:45:56;4.47;;;3.33;;
13805;SDS011;6974;53.606;9.872;2022-08-14T07:48:24;4.87;;;3.63;;
13805;SDS011;6974;53.606;9.872;2022-08-14T07:50:52;5.73;;;3.90;;
13805;SDS011;6974;53.606;9.872;2022-08-14T07:53:20;6.03;;;3.80;;
13805;SDS011;6974;53.606;9.872;2022-08-14T07:55:47;4.90;;;3.67;;
13805;SDS011;6974;53.606;9.872;2022-08-14T07:58:14;4.00;;;3.47;;
13805;SDS011;6974;53.606;9.872;2022-08-14T08:00:42;5.37;;;3.50;;
13805;SDS011;6974;53.606;9.872;2022-08-14T08:03:09;6.13;;;3.10;;
13805;SDS011;6974;53.606;9.872;2022-08-14T08:05:38;5.13;;;3.70;;
13805;SDS011;6974;53.606;9.872;2022-08-14T08:08:07;5.00;;;3.73;;
13805;SDS011;6974;53.606;9.872;2022-08-14T08:10:35;4.73;;;4.13;;
13805;SDS011;6974;53.606;9.872;2022-08-14T08:13:06;4.47;;;3.33;;
13805;SDS011;6974;53.606;9.872;2022-08-14T08:15:35;4.43;;;3.57;;
13805;SDS011;6974;53.606;9.872;2022-08-14T08:18:05;4.20;;;3.60;;
13805;SDS011;6974;53.606;9.872;2022-08-14T08:20:35;6.07;;;3.60;;
13805;SDS011;6974;53.606;9.872;2022-08-14T08:23:06;5.30;;;3.80;;
13805;SDS011;6974;53.606;9.872;2022-08-14T08:25:34;4.73;;;3.70;;
13805;SDS011;6974;53.606;9.872;2022-08-14T08:28:07;4.67;;;3.53;;
13805;SDS011;6974;53.606;9.872;2022-08-14T08:30:39;3.83;;;3.50;;
13805;SDS011;6974;53.606;9.872;2022-08-14T08:33:07;3.97;;;3.57;;
13805;SDS011;6974;53.606;9.872;2022-08-14T08:35:36;5.70;;;3.90;;
13805;SDS011;6974;53.606;9.872;2022-08-14T08:38:04;4.73;;;4.30;;
13805;SDS011;6974;53.606;9.872;2022-08-14T08:40:34;4.10;;;3.70;;
13805;SDS011;6974;53.606;9.872;2022-08-14T08:43:06;5.60;;;3.97;;
13805;SDS011;6974;53.606;9.872;2022-08-14T08:45:34;5.53;;;4.23;;
13805;SDS011;6974;53.606;9.872;2022-08-14T08:48:04;4.67;;;4.27;;
13805;SDS011;6974;53.606;9.872;2022-08-14T08:50:33;4.50;;;4.10;;
13805;SDS011;6974;53.606;9.872;2022-08-14T08:53:02;6.17;;;4.57;;
13805;SDS011;6974;53.606;9.872;2022-08-14T08:55:33;4.00;;;3.60;;
13805;SDS011;6974;53.606;9.872;2022-08-14T08:58:03;5.37;;;4.13;;
13805;SDS011;6974;53.606;9.872;2022-08-14T09:00:31;5.67;;;4.00;;
13805;SDS011;6974;53.606;9.872;2022-08-14T09:03:01;5.23;;;4.10;;
13805;SDS011;6974;53.606;9.872;2022-08-14T09:05:30;6.33;;;4.53;;
13805;SDS011;6974;53.606;9.872;2022-08-14T09:08:11;5.57;;;4.00;;
13805;SDS011;6974;53.606;9.872;2022-08-14T09:10:43;4.50;;;4.10;;
13805;SDS011;6974;53.606;9.872;2022-08-14T09:13:11;4.53;;;4.13;;
13805;SDS011;6974;53.606;9.872;2022-08-14T09:15:40;5.47;;;4.43;;
13805;SDS011;6974;53.606;9.872;2022-08-14T09:18:08;5.07;;;4.13;;
13805;SDS011;6974;53.606;9.872;2022-08-14T09:20:39;4.50;;;4.10;;
13805;SDS011;6974;53.606;9.872;2022-08-14T09:23:10;4.73;;;4.20;;
13805;SDS011;6974;53.606;9.872;2022-08-14T09:25:39;4.73;;;4.20;;
13805;SDS011;6974;53.606;9.872;2022-08-14T09:28:09;6.77;;;4.30;;
13805;SDS011;6974;53.606;9.872;2022-08-14T09:30:38;5.03;;;3.87;;
13805;SDS011;6974;53.606;9.872;2022-08-14T09:36:07;6.13;;;4.77;;
13805;SDS011;6974;53.606;9.872;2022-08-14T09:38:59;5.33;;;4.47;;
13805;SDS011;6974;53.606;9.872;2022-08-14T09:41:39;5.23;;;4.73;;
13805;SDS011;6974;53.606;9.872;2022-08-14T09:44:16;5.57;;;4.80;;
13805;SDS011;6974;53.606;9.872;2022-08-14T09:46:58;4.80;;;4.23;;
13805;SDS011;6974;53.606;9.872;2022-08-14T09:49:28;5.80;;;5.17;;
13805;SDS011;6974;53.606;9.872;2022-08-14T09:52:02;6.50;;;4.77;;
13805;SDS011;6974;53.606;9.872;2022-08-14T09:54:34;5.57;;;5.07;;
13805;SDS011;6974;53.606;9.872;2022-08-14T09:57:04;5.50;;;5.00;;
13805;SDS011;6974;53.606;9.872;2022-08-14T09:59:40;5.00;;;4.60;;
13805;SDS011;6974;53.606;9.872;2022-08-14T10:02:18;6.13;;;4.97;;
13805;SDS011;6974;53.606;9.872;2022-08-14T10:04:57;6.87;;;5.57;;
13805;SDS011;6974;53.606;9.872;2022-08-14T10:07:29;6.50;;;4.90;;
13805;SDS011;6974;53.606;9.872;2022-08-14T10:09:57;5.43;;;5.03;;
13805;SDS011;6974;53.606;9.872;2022-08-14T10:12:26;7.40;;;5.00;;
13805;SDS011;6974;53.606;9.872;2022-08-14T10:15:15;5.87;;;5.37;;
13805;SDS011;6974;53.606;9.872;2022-08-14T10:17:44;5.93;;;5.37;;
13805;SDS011;6974;53.606;9.872;2022-08-14T10:20:13;5.80;;;5.20;;
13805;SDS011;6974;53.606;9.872;2022-08-14T10:22:41;5.03;;;4.63;;
13805;SDS011;6974;53.606;9.872;2022-08-14T10:25:09;7.80;;;4.90;;
13805;SDS011;6974;53.606;9.872;2022-08-14T10:27:39;6.43;;;4.87;;
13805;SDS011;6974;53.606;9.872;2022-08-14T10:30:14;5.90;;;4.83;;
13805;SDS011;6974;53.606;9.872;2022-08-14T10:32:43;6.17;;;5.13;;
13805;SDS011;6974;53.606;9.872;2022-08-14T10:35:11;5.37;;;4.80;;
13805;SDS011;6974;53.606;9.872;2022-08-14T10:37:40;5.70;;;5.20;;
13805;SDS011;6974;53.606;9.872;2022-08-14T10:40:10;6.37;;;5.43;;
13805;SDS011;6974;53.606;9.872;2022-08-14T10:42:43;5.90;;;5.17;;
13805;SDS011;6974;53.606;9.872;2022-08-14T10:45:20;5.90;;;5.37;;
13805;SDS011;6974;53.606;9.872;2022-08-14T10:47:49;6.10;;;5.20;;
13805;SDS011;6974;53.606;9.872;2022-08-14T10:50:27;7.10;;;5.07;;
13805;SDS011;6974;53.606;9.872;2022-08-14T10:52:55;6.40;;;5.27;;
13805;SDS011;6974;53.606;9.872;2022-08-14T10:55:23;5.90;;;5.40;;
13805;SDS011;6974;53.606;9.872;2022-08-14T10:57:59;6.10;;;5.50;;
13805;SDS011;6974;53.606;9.872;2022-08-14T11:00:26;6.83;;;5.50;;
13805;SDS011;6974;53.606;9.872;2022-08-14T11:02:57;6.30;;;5.70;;
13805;SDS011;6974;53.606;9.872;2022-08-14T11:05:25;9.60;;;5.73;;
13805;SDS011;6974;53.606;9.872;2022-08-14T11:08:05;5.97;;;4.93;;
13805;SDS011;6974;53.606;9.872;2022-08-14T11:10:37;6.90;;;5.80;;
13805;SDS011;6974;53.606;9.872;2022-08-14T11:13:08;6.97;;;5.70;;
13805;SDS011;6974;53.606;9.872;2022-08-14T11:15:36;5.97;;;5.43;;
13805;SDS011;6974;53.606;9.872;2022-08-14T11:18:03;8.70;;;5.77;;
13805;SDS011;6974;53.606;9.872;2022-08-14T11:20:30;7.57;;;5.37;;
13805;SDS011;6974;53.606;9.872;2022-08-14T11:22:58;8.77;;;6.23;;
13805;SDS011;6974;53.606;9.872;2022-08-14T11:25:27;5.70;;;5.20;;
13805;SDS011;6974;53.606;9.872;2022-08-14T11:27:56;7.13;;;5.80;;
13805;SDS011;6974;53.606;9.872;2022-08-14T11:30:25;7.40;;;6.07;;
13805;SDS011;6974;53.606;9.872;2022-08-14T11:32:55;5.73;;;5.23;;
13805;SDS011;6974;53.606;9.872;2022-08-14T11:35:23;6.33;;;5.73;;
13805;SDS011;6974;53.606;9.872;2022-08-14T11:37:52;7.23;;;5.80;;
13805;SDS011;6974;53.606;9.872;2022-08-14T11:40:21;6.27;;;5.77;;
13805;SDS011;6974;53.606;9.872;2022-08-14T11:42:50;6.40;;;5.80;;
13805;SDS011;6974;53.606;9.872;2022-08-14T11:45:20;5.47;;;5.00;;
13805;SDS011;6974;53.606;9.872;2022-08-14T11:47:50;6.60;;;5.20;;
13805;SDS011;6974;53.606;9.872;2022-08-14T11:50:19;6.97;;;5.83;;
13805;SDS011;6974;53.606;9.872;2022-08-14T11:52:48;6.37;;;5.73;;
13805;SDS011;6974;53.606;9.872;2022-08-14T11:55:16;10.70;;;5.60;;
13805;SDS011;6974;53.606;9.872;2022-08-14T11:57:43;8.13;;;6.00;;
13805;SDS011;6974;53.606;9.872;2022-08-14T12:00:12;5.60;;;5.10;;
13805;SDS011;6974;53.606;9.872;2022-08-14T12:02:52;8.77;;;6.13;;
13805;SDS011;6974;53.606;9.872;2022-08-14T12:05:27;6.03;;;5.53;;
13805;SDS011;6974;53.606;9.872;2022-08-14T12:07:58;6.53;;;5.40;;
13805;SDS011;6974;53.606;9.872;2022-08-14T12:10:25;7.07;;;6.27;;
13805;SDS011;6974;53.606;9.872;2022-08-14T12:12:53;6.33;;;5.77;;
13805;SDS011;6974;53.606;9.872;2022-08-14T12:15:27;9.43;;;5.83;;
13805;SDS011;6974;53.606;9.872;2022-08-14T12:17:57;5.93;;;5.33;;
13805;SDS011;6974;53.606;9.872;2022-08-14T12:20:28;7.70;;;5.70;;
13805;SDS011;6974;53.606;9.872;2022-08-14T12:22:57;7.73;;;6.00;;
13805;SDS011;6974;53.606;9.872;2022-08-14T12:25:25;7.00;;;5.53;;
13805;SDS011;6974;53.606;9.872;2022-08-14T12:27:53;7.00;;;6.00;;
13805;SDS011;6974;53.606;9.872;2022-08-14T12:30:25;7.63;;;6.13;;
13805;SDS011;6974;53.606;9.872;2022-08-14T12:32:54;6.67;;;6.07;;
13805;SDS011;6974;53.606;9.872;2022-08-14T12:35:22;8.00;;;6.43;;
13805;SDS011;6974;53.606;9.872;2022-08-14T12:38:00;6.87;;;6.27;;
13805;SDS011;6974;53.606;9.872;2022-08-14T12:40:28;7.10;;;6.40;;
13805;SDS011;6974;53.606;9.872;2022-08-14T12:42:58;6.70;;;6.10;;
13805;SDS011;6974;53.606;9.872;2022-08-14T12:45:30;6.43;;;5.83;;
13805;SDS011;6974;53.606;9.872;2022-08-14T12:47:59;7.17;;;6.50;;
13805;SDS011;6974;53.606;9.872;2022-08-14T12:50:35;6.40;;;5.80;;
13805;SDS011;6974;53.606;9.872;2022-08-14T12:53:04;7.20;;;6.50;;
13805;SDS011;6974;53.606;9.872;2022-08-14T12:55:32;6.60;;;6.00;;
13805;SDS011;6974;53.606;9.872;2022-08-14T12:58:00;6.47;;;5.87;;
13805;SDS011;6974;53.606;9.872;2022-08-14T13:00:30;8.03;;;6.40;;
13805;SDS011;6974;53.606;9.872;2022-08-14T13:02:58;7.00;;;6.33;;
13805;SDS011;6974;53.606;9.872;2022-08-14T13:05:26;6.97;;;5.90;;
13805;SDS011;6974;53.606;9.872;2022-08-14T13:07:57;9.43;;;6.37;;
13805;SDS011;6974;53.606;9.872;2022-08-14T13:10:25;6.77;;;6.17;;
13805;SDS011;6974;53.606;9.872;2022-08-14T13:12:54;8.87;;;6.77;;
13805;SDS011;6974;53.606;9.872;2022-08-14T13:15:22;7.23;;;6.63;;
13805;SDS011;6974;53.606;9.872;2022-08-14T13:17:51;7.07;;;6.33;;
13805;SDS011;6974;53.606;9.872;2022-08-14T13:20:21;7.37;;;6.37;;
13805;SDS011;6974;53.606;9.872;2022-08-14T13:22:49;8.90;;;6.57;;
13805;SDS011;6974;53.606;9.872;2022-08-14T13:25:23;7.03;;;6.27;;
13805;SDS011;6974;53.606;9.872;2022-08-14T13:27:54;6.90;;;6.30;;
13805;SDS011;6974;53.606;9.872;2022-08-14T13:30:23;6.60;;;6.00;;
13805;SDS011;6974;53.606;9.872;2022-08-14T13:32:52;7.70;;;6.20;;
13805;SDS011;6974;53.606;9.872;2022-08-14T13:35:20;6.90;;;6.20;;
13805;SDS011;6974;53.606;9.872;2022-08-14T13:37:47;7.10;;;6.40;;
13805;SDS011;6974;53.606;9.872;2022-08-14T13:40:15;6.70;;;6.10;;
13805;SDS011;6974;53.606;9.872;2022-08-14T13:42:45;6.87;;;6.10;;
13805;SDS011;6974;53.606;9.872;2022-08-14T13:45:14;7.10;;;6.47;;
13805;SDS011;6974;53.606;9.872;2022-08-14T13:47:41;8.47;;;6.20;;
13805;SDS011;6974;53.606;9.872;2022-08-14T13:50:10;6.37;;;5.77;;
13805;SDS011;6974;53.606;9.872;2022-08-14T13:52:40;7.10;;;6.40;;
13805;SDS011;6974;53.606;9.872;2022-08-14T13:55:08;6.50;;;5.90;;
13805;SDS011;6974;53.606;9.872;2022-08-14T13:57:38;7.10;;;6.50;;
13805;SDS011;6974;53.606;9.872;2022-08-14T14:00:09;6.77;;;6.13;;
13805;SDS011;6974;53.606;9.872;2022-08-14T14:02:38;7.07;;;6.40;;
13805;SDS011;6974;53.606;9.872;2022-08-14T14:05:06;7.43;;;6.70;;
13805;SDS011;6974;53.606;9.872;2022-08-14T14:07:36;7.53;;;6.80;;
13805;SDS011;6974;53.606;9.872;2022-08-14T14:10:06;6.90;;;6.40;;
13805;SDS011;6974;53.606;9.872;2022-08-14T14:12:35;7.70;;;7.00;;
13805;SDS011;6974;53.606;9.872;2022-08-14T14:15:04;7.47;;;6.77;;
13805;SDS011;6974;53.606;9.872;2022-08-14T14:17:34;6.93;;;6.23;;
13805;SDS011;6974;53.606;9.872;2022-08-14T14:20:02;9.60;;;7.40;;
13805;SDS011;6974;53.606;9.872;2022-08-14T14:22:32;7.80;;;7.07;;
13805;SDS011;6974;53.606;9.872;2022-08-14T14:24:59;7.10;;;6.40;;
13805;SDS011;6974;53.606;9.872;2022-08-14T14:27:26;7.70;;;7.00;;
13805;SDS011;6974;53.606;9.872;2022-08-14T14:29:56;6.80;;;6.20;;
13805;SDS011;6974;53.606;9.872;2022-08-14T14:32:26;7.57;;;6.63;;
13805;SDS011;6974;53.606;9.872;2022-08-14T14:34:56;6.90;;;5.93;;
13805;SDS011;6974;53.606;9.872;2022-08-14T14:37:26;9.13;;;5.80;;
13805;SDS011;6974;53.606;9.872;2022-08-14T14:39:54;7.20;;;6.50;;
13805;SDS011;6974;53.606;9.872;2022-08-14T14:42:23;8.07;;;6.40;;
13805;SDS011;6974;53.606;9.872;2022-08-14T14:44:51;5.83;;;5.30;;
13805;SDS011;6974;53.606;9.872;2022-08-14T14:47:25;6.67;;;5.33;;
13805;SDS011;6974;53.606;9.872;2022-08-14T14:49:54;6.47;;;5.30;;
13805;SDS011;6974;53.606;9.872;2022-08-14T14:52:23;6.93;;;5.90;;
13805;SDS011;6974;53.606;9.872;2022-08-14T14:54:50;5.60;;;5.00;;
13805;SDS011;6974;53.606;9.872;2022-08-14T14:57:17;7.03;;;5.47;;
13805;SDS011;6974;53.606;9.872;2022-08-14T14:59:44;7.77;;;5.97;;
13805;SDS011;6974;53.606;9.872;2022-08-14T15:02:14;5.40;;;4.90;;
13805;SDS011;6974;53.606;9.872;2022-08-14T15:04:57;6.80;;;5.07;;
13805;SDS011;6974;53.606;9.872;2022-08-14T15:07:25;6.37;;;5.67;;
13805;SDS011;6974;53.606;9.872;2022-08-14T15:09:52;7.43;;;5.30;;
13805;SDS011;6974;53.606;9.872;2022-08-14T15:12:19;8.27;;;5.70;;
13805;SDS011;6974;53.606;9.872;2022-08-14T15:14:47;7.00;;;5.37;;
13805;SDS011;6974;53.606;9.872;2022-08-14T15:17:14;7.57;;;5.50;;